Overton, Nevada Weather observations

Data are for observation ending at time listed.
 Day   Time    Ave.   Ave.  Ave.  Vector   Max.   Stn.    Total    Solar   Ave.  
  of    of     Air    Rel.  Wind   Wind    Wind   Baro.  Precip.   Rad.    Soil  
Year   Day     Temp.  Hum.  Speed  Dir.    Gust   Pres.                    Temp. 
2026   (PST)    F      %     mph   deg.    mph     mb.     in.     W/m2     F   
------------------------------------------------------------------------------
 243    0:00   77.8    32    2.2   340      3.5   962.2    0.00       0    88.3
 243    0:10   79.8    29    1.6   290      3.8   962.1    0.00       0    88.7
 243    0:20   78.5    30    3.3   345      4.7   962.1    0.00       0    87.6
 243    0:30   78.3    29    2.5   312      4.3   962.2    0.00       0    87.8
 243    0:40   79.3    28    1.1   266      2.7   962.1    0.00       0    88.2
 243    0:50   79.9    26    1.9   288      3.8   962.1    0.00       0    88.0
 243    1:00   79.5    26    3.8   300      5.7   962.1    0.00       0    87.6
 243    1:10   79.1    26    3.2   305      5.2   962.1    0.00       0    87.3
 243    1:20   79.1    26    2.0   293      3.7   962.3    0.00       0    87.3
 243    1:30   80.0    24    1.8   299      3.9   962.4    0.00       0    87.5
 243    1:40   79.6    25    1.4   311      2.9   962.4    0.00       0    87.0
 243    1:50   78.7    26    0.7   311      2.2   962.5    0.00       0    87.0
 243    2:00   78.7    26    1.9    18      3.4   962.6    0.00       0    86.7
 243    2:10   79.2    26    1.6   339      3.2   962.7    0.00       0    86.7
 243    2:20   79.7    26    1.8   291      4.5   962.7    0.00       0    87.0
 243    2:30   80.2    26    2.0   267      4.9   962.8    0.00       0    87.0
 243    2:40   79.9    26    1.6   286      3.5   962.8    0.00       0    86.6
 243    2:50   78.8    27    2.5   302      4.2   962.8    0.00       0    86.2
 243    3:00   79.3    27    0.9   268      2.3   962.8    0.00       0    86.6
 243    3:10   79.0    29    2.4    27      3.7   962.9    0.00       0    86.1
 243    3:20   77.8    31    2.3   355      5.6   962.9    0.00       0    85.9
 243    3:30   79.2    30    1.8    19      5.1   962.8    0.00       0    86.1
 243    3:40   79.4    30    1.0   291      2.3   962.7    0.00       0    86.0
 243    3:50   78.5    30    1.8   299      3.2   962.8    0.00       0    85.6
 243    4:00   78.2    31    1.8   293      4.2   962.7    0.00       0    85.7
 243    4:10   77.9    32    1.8   330      2.7   962.7    0.00       0    85.1
 243    4:20   76.0    36    3.2   355      3.9   962.9    0.00       0    84.7
 243    4:30   76.4    35    1.7   341      3.1   962.9    0.00       0    84.8
 243    4:40   77.3    34    0.3   359      1.5   962.9    0.00       0    85.4
 243    4:50   77.3    34    1.1   290      3.0   963.0    0.00       0    84.9
 243    5:00   77.8    32    3.1   296      5.1   963.1    0.00       0    84.9
 243    5:10   77.3    34    3.4   321      5.6   963.3    0.00       2    84.5
 243    5:20   77.5    34    2.8   311      5.6   963.4    0.00       6    84.5
 243    5:30   78.2    34    2.0   337      2.9   963.5    0.00      16    84.8
 243    5:40   78.5    33    1.9   342      3.1   963.6    0.00      35    85.2
 243    5:50   78.6    32    3.2   328      5.3   963.8    0.00      62    86.5
 243    6:00   79.5    32    3.6   349      6.7   964.1    0.00      89    87.5
 243    6:10   80.0    30    1.7   338      3.8   964.3    0.00     120    89.4
 243    6:20   81.0    30    2.8   298      5.3   964.5    0.00     150    91.3
 243    6:30   82.9    28    2.6   304      5.9   964.9    0.00     182    92.9
 243    6:40   84.0    29    2.6   323      3.8   965.2    0.00     214    93.8
 243    6:50   85.2    28    1.6   314      3.0   965.4    0.00     290    96.1
 243    7:00   87.1    28    1.8   344      3.1   965.6    0.00     290    96.7
 243    7:10   88.2    30    1.1   358      2.4   965.8    0.00     265    97.1
 243    7:20   91.0    31    3.5   161     15.0   966.0    0.00     448    102.4
 243    7:30   92.2    30    7.8   157     14.8   966.2    0.00     446    102.9
 243    7:40   92.1    30    6.9   160     14.0   966.4    0.00     288    101.6
 243    7:50   91.9    30    6.6   157     15.9   966.5    0.00     261    100.3
 243    8:00   92.3    29    9.1   176     17.7   966.4    0.00     372    101.8
 243    8:10   92.3    29    8.7   163     17.0   966.5    0.00     242    100.9
 243    8:20   92.3    29    8.8   170     17.6   966.5    0.00     405    101.8
 243    8:30   93.4    28    8.3   173     14.3   966.7    0.00     604    105.6
 243    8:40   94.0    28    7.5   178     14.5   966.7    0.00     633    107.1
 243    8:50   94.7    27    7.0   159     14.1   966.8    0.00     466    107.1
 243    9:00   95.3    26    6.4   155     11.9   967.0    0.00     716    108.9
 243    9:10   95.7    26    6.4   150     12.9   967.1    0.00     625    110.5
 243    9:20   95.4    26    7.4   144     17.0   967.2    0.00     570    109.7
 243    9:30   94.9    26    7.1   157     14.5   967.2    0.00     515    109.3
 243    9:40   95.6    26    7.8   157     16.4   967.2    0.00     747    111.7
 243    9:50   95.3    26    7.2   164     16.4   967.1    0.00     653    111.6
 243   10:00   95.5    26   11.0   180     18.6   967.0    0.00     827    113.3
 243   10:10   95.5    26   10.8   189     18.2   966.8    0.00     820    114.0
 243   10:20   96.0    25    9.1   187     15.4   966.7    0.00     813    114.2
 243   10:30   96.9    24   10.1   184     19.4   966.7    0.00     846    114.4
 243   10:40   96.5    24   11.2   178     20.5   966.7    0.00     866    114.1
 243   10:50   96.9    24    8.6   158     16.1   966.6    0.00     872    114.4
 243   11:00   97.5    23   10.0   180     17.8   966.5    0.00     863    114.7
 243   11:10   97.7    23    9.9   171     19.3   966.5    0.00     875    114.9
 243   11:20   98.3    22    9.0   160     18.3   966.4    0.00     896    114.8
 243   11:30   98.7    22   10.7   161     19.8   966.2    0.00     913    115.1
 243   11:40   99.2    22    8.8   150     20.1   966.1    0.00     921    115.1
 243   11:50   98.8    22    9.5   167     18.3   966.1    0.00     915    115.8
 243   12:00   99.5    20   11.2   170     21.5   965.8    0.00     893    116.0
 243   12:10   99.5    20   11.7   180     21.8   965.7    0.00     889    116.2
 243   12:20   99.8    20   12.1   168     22.6   965.5    0.00     886    115.5
 243   12:30  100.5    19   10.2   161     24.1   965.4    0.00     869    114.9
 243   12:40  100.5    19   13.3   177     24.0   965.3    0.00     886    114.1
 243   12:50  100.3    20   13.8   172     22.9   965.2    0.00     891    113.1
 243   13:00  100.3    21    9.9   150     21.0   965.2    0.00     719    111.4
 243   13:10  100.1    21   10.4   138     20.5   965.1    0.00     491    110.6
 243   13:20   99.9    20    7.5   144     16.4   964.8    0.00     444    110.5
 243   13:30  101.0    17   13.2   174     30.2   964.7    0.00     762    111.2
 243   13:40  100.9    16   12.1   158     26.6   964.7    0.00     760    110.6
 243   13:50  100.7    16   12.2   174     21.3   964.6    0.00     577    110.2
 243   14:00  101.3    14   14.0   180     25.1   964.4    0.00     754    110.5
 243   14:10  101.8    14   12.2   172     26.2   964.4    0.00     717    110.5
 243   14:20  101.5    14   13.4   176     23.2   964.3    0.00     707    110.2
 243   14:30  100.8    15   13.1   176     22.1   964.1    0.00     494    109.9
 243   14:40  101.4    15   13.0   170     21.2   963.9    0.00     655    109.9
 243   14:50  101.7    14   11.4   166     19.7   963.8    0.00     621    109.6
 243   15:00  101.6    14    9.9   163     17.0   963.9    0.00     437    109.2
 243   15:10  100.9    15   10.7   167     18.3   963.8    0.00     421    108.9
 243   15:20  100.8    14   10.3   168     21.9   963.7    0.00     335    108.6
 243   15:30  101.6    14   10.4   168     22.2   963.6    0.00     498    108.7
 243   15:40  101.0    14   11.4   163     24.9   963.5    0.00     370    108.0
 243   15:50  101.1    14    9.9   160     21.2   963.5    0.00     174    107.3
 243   16:00  101.3    14   11.0   162     20.3   963.3    0.00     140    107.4
 243   16:10  101.1    14   12.7   167     20.2   963.2    0.00     352    107.5
 243   16:20  100.8    14   11.8   163     21.9   963.2    0.00     323    106.9
 243   16:30  100.9    14    9.0   156     19.8   963.2    0.00     291    106.4
 243   16:40  100.9    14    9.2   161     15.9   963.1    0.00     248    106.1
 243   16:50  100.5    14   10.2   158     22.5   963.0    0.00     205    105.5
 243   17:00  100.3    14   10.1   166     20.3   963.0    0.00     167    105.0
 243   17:10  100.2    13   10.1   163     22.5   963.0    0.00      91    104.6
 243   17:20   99.6    14   10.8   161     21.1   962.9    0.00      79    104.0
 243   17:30   99.3    14   10.7   161     23.5   962.9    0.00      49    103.5
 243   17:40   99.0    14    8.4   157     18.9   962.8    0.00      27    102.8
 243   17:50   98.5    15    9.6   166     20.5   962.8    0.00      20    102.5
 243   18:00   98.2    15    8.4   161     17.0   962.6    0.00      12    101.9
 243   18:10   97.9    15    8.3   168     14.2   962.6    0.00       7    101.4
 243   18:20   97.6    16    8.2   169     15.1   962.7    0.00       2    101.1
 243   18:30   97.2    16    7.3   164     14.9   962.7    0.00       0    100.5
 243   18:40   97.0    17    8.1   163     16.9   962.8    0.00       0    100.2
 243   18:50   96.5    21    9.4   164     18.5   963.0    0.00       0    100.0
 243   19:00   95.9    23    8.8   172     21.9   963.1    0.00       0    99.6
 243   19:10   95.3    25    9.2   170     21.0   963.2    0.00       0    99.2
 243   19:20   94.6    26    7.2   163     14.0   963.4    0.00       0    98.7
 243   19:30   94.0    27    7.2   170     13.0   963.5    0.00       0    98.3
 243   19:40   93.8    27    8.6   171     15.4   963.5    0.00       0    98.0
 243   19:50   93.7    27    9.3   174     15.8   963.7    0.00       0    97.7
 243   20:00   93.5    28    7.7   173     14.5   963.7    0.00       0    97.4
 243   20:10   93.4    28    7.9   173     17.1   963.8    0.00       0    97.2
 243   20:20   93.3    28    7.4   169     13.3   963.9    0.00       0    97.0
 243   20:30   93.2    28    9.3   168     15.6   964.0    0.00       0    96.8
 243   20:40   93.1    29   11.1   177     22.6   964.0    0.00       0    96.6
 243   20:50   92.8    29    8.7   168     16.4   964.0    0.00       0    96.3
 243   21:00   92.5    30    9.4   162     19.6   964.0    0.00       0    96.0
 243   21:10   92.1    31   10.3   159     21.7   964.1    0.00       0    95.6
 243   21:20   91.7    32    9.2   164     17.2   964.1    0.00       0    95.4
 243   21:30   91.5    32    8.8   162     16.4   964.2    0.00       0    95.1
 243   21:40   91.3    32    7.7   157     15.9   964.3    0.00       0    94.8
 243   21:50   91.2    32    6.0   159     13.2   964.3    0.00       0    94.6
 243   22:00   91.1    32    4.7   147     11.8   964.5    0.00       0    94.4
 243   22:10   90.0    31    6.6    84     13.2   964.8    0.00       0    93.8
 243   22:20   88.4    30    4.9    41     14.0   964.8    0.00       0    93.2
 243   22:30   87.6    30    9.3    52     17.8   964.9    0.00       0    92.6
 243   22:40   87.7    31   10.4    37     19.5   964.9    0.00       0    92.3
 243   22:50   88.1    31    9.0    40     14.4   965.1    0.00       0    92.2
 243   23:00   86.1    31    7.3    35     12.2   965.3    0.00       0    91.3
 243   23:10   85.7    32    7.0    62     12.4   965.3    0.00       0    91.2
 243   23:20   85.4    32    6.0    53     11.5   965.2    0.00       0    90.9
 243   23:30   85.1    32    7.0    52     12.7   965.1    0.00       0    90.6
 243   23:40   85.1    33    7.8    66     12.0   965.1    0.00       0    90.4
 243   23:50   85.4    34    6.5    68     11.2   965.2    0.00       0    90.3

Return to Overton, Nevada graphs page.


Western Regional Climate Center,wrcc@dri.edu